WFI weather

Fianarantsoa Airport
Fianarantsoa, Madagascar

Public forecast

Using degrees Celsius for public forecast. Weather courtesy of forecast.io.

Closest aviation weather report (METAR) to Fianarantsoa Airport

Report is more than 6 hours old.

Closest report is Mananjary Airport, 71.2 nm (131.9 km) ENE. Retrieved 2011/11/15 06:00 UTC (8 years ago):

FMSM 150600Z 36006KT 9999 SCT017 BKN040 27/22 Q1015

Closest aviation forecast (TAF) to Fianarantsoa Airport

Forecast is more than 12 hours old.

Closest forecast is Antsirabe Airport, 96.2 nm (178.2 km) N. Retrieved 2009/10/13 16:00 UTC (10 years ago):

TAF FMME 131600Z 1318/1500 18006KT 6000 SCT016 BECMG 1322/1324 22004KT 5000 SCT010 SCT016 TEMPO 1400/1410 VRB03KT 2000 BR PROB30 TEMPO 1402/1406 0500 FG BECMG 1410/1412 32008KT 8000 SCT016